Terminal Aerodrome Forecast
Issued by NWS Sioux Falls, SD

Home | Current Version | Previous Version | Graphics & Text | Print | Product List | Glossary On
Versions: 1 2 3 4 5 6 7 8 9 10 11 12 13 14 15 16 17 18 19 20 21 22 23
000
FTUS43 KFSD 231122
TAFFSD
TAF
KFSD 231122Z 2312/2412 VRB02KT 1/4SM FG VV002
     FM231300 23006KT 1/2SM FG BKN003
      TEMPO 2315/2316 3SM BR SCT006
     FM231600 22007KT P6SM SKC
     FM232300 16005KT P6SM SCT250
     FM240700 16007KT 4SM BR SCT150
     FM240900 17005KT 2SM BR SCT006=

USA.gov is the U.S. government's official web portal to all federal, state and local government web resources and services.